Time;durP1;ratioP1;P1;durP2;ratioP2;P2;SDS_P1;SDS_P2;PMS_P1;PMS_P2;Temp;Humidity;BMP_temperature;BMP_pressure;BME280_temperature;BME280_humidity;BME280_pressure;Samples;Min_cycle;Max_cycle;Signal;HPM_P1;HPM_P2
2023/12/19 00:01:25;;;;;;;1.70;0.73;;;8.00;92.40;7.90;101221.00;;;;4927822;28;90428;-68
2023/12/19 00:03:52;;;;;;;1.17;0.70;;;8.00;92.20;8.00;101231.00;;;;4932763;28;106656;-68
2023/12/19 00:06:18;;;;;;;1.33;0.83;;;8.10;92.10;8.00;101224.00;;;;4928392;28;109217;-72
2023/12/19 00:08:43;;;;;;;1.17;0.90;;;8.10;91.80;8.00;101222.00;;;;4929322;28;95847;-72
2023/12/19 00:11:09;;;;;;;0.70;0.70;;;8.10;91.60;8.10;101235.00;;;;4926848;28;117812;-71
2023/12/19 00:13:34;;;;;;;2.13;0.70;;;8.20;91.50;8.10;101240.00;;;;4929063;28;117518;-71
2023/12/19 00:16:03;;;;;;;0.83;0.83;;;8.20;91.30;8.10;101245.00;;;;4930079;28;110979;-70
2023/12/19 00:18:30;;;;;;;1.20;1.00;;;8.20;91.30;8.20;101242.00;;;;4931913;28;87954;-70
2023/12/19 00:20:56;;;;;;;1.03;0.67;;;8.30;91.30;8.10;101250.00;;;;4925600;28;88138;-67
2023/12/19 00:23:22;;;;;;;6.33;1.30;;;8.30;91.40;8.10;101254.00;;;;4927270;28;88676;-70
2023/12/19 00:25:48;;;;;;;0.87;0.70;;;8.20;91.50;8.10;101260.00;;;;4945825;28;88188;-70
2023/12/19 00:28:14;;;;;;;1.43;0.80;;;8.30;91.60;8.00;101242.00;;;;4931333;28;100114;-70
2023/12/19 00:30:39;;;;;;;0.87;0.83;;;8.20;91.80;7.90;101238.00;;;;4930133;28;117704;-71
2023/12/19 00:33:05;;;;;;;0.80;0.60;;;8.20;92.00;7.90;101224.00;;;;4928252;28;117883;-70
2023/12/19 00:35:32;;;;;;;2.10;1.20;;;8.10;92.30;7.70;101224.00;;;;4925497;28;109240;-71
2023/12/19 00:37:58;;;;;;;1.33;0.77;;;7.90;92.30;7.60;101233.00;;;;4931350;28;87955;-70
2023/12/19 00:40:23;;;;;;;0.80;0.60;;;7.80;92.50;7.50;101240.00;;;;4935863;28;87475;-70
2023/12/19 00:42:49;;;;;;;2.13;1.00;;;7.70;92.70;7.30;101243.00;;;;4927695;28;115794;-71
2023/12/19 00:45:15;;;;;;;1.23;0.90;;;7.60;92.80;7.10;101234.00;;;;4933113;28;108781;-71
2023/12/19 00:47:40;;;;;;;1.43;1.20;;;7.40;92.90;7.00;101243.00;;;;4924740;28;97469;-70
2023/12/19 00:50:09;;;;;;;0.87;0.80;;;7.20;93.00;6.90;101236.00;;;;4930733;28;105471;-70
2023/12/19 00:52:35;;;;;;;1.33;1.00;;;7.10;93.10;6.70;101234.00;;;;4930329;28;88240;-71
2023/12/19 00:55:01;;;;;;;3.00;0.93;;;7.00;93.20;6.60;101231.00;;;;4947314;28;88058;-70
2023/12/19 00:57:27;;;;;;;2.13;0.93;;;6.90;93.40;6.50;101240.00;;;;4919821;28;89581;-70
2023/12/19 00:59:53;;;;;;;0.80;0.80;;;6.70;93.50;6.40;101229.00;;;;4925900;28;118132;-70
2023/12/19 01:02:18;;;;;;;1.20;1.10;;;6.60;93.60;6.30;101241.00;;;;4929335;28;117371;-70
2023/12/19 01:04:44;;;;;;;0.90;0.87;;;7.20;93.90;6.20;101235.00;;;;4931020;28;110948;-70
2023/12/19 01:07:09;;;;;;;1.30;1.00;;;6.60;93.80;6.20;101225.00;;;;4930425;28;107816;-70
2023/12/19 01:09:35;;;;;;;1.27;1.00;;;6.40;93.90;6.10;101223.00;;;;4930036;28;116078;-70
2023/12/19 01:12:01;;;;;;;1.47;1.20;;;6.50;94.10;6.00;101226.00;;;;4931856;28;116120;-71
2023/12/19 01:14:27;;;;;;;0.80;0.80;;;5.90;94.00;6.00;101241.00;;;;4930840;28;88388;-71
2023/12/19 01:16:52;;;;;;;1.33;1.23;;;6.10;94.30;5.90;101236.00;;;;4930892;28;110551;-71
2023/12/19 01:19:18;;;;;;;0.70;0.70;;;6.50;94.50;5.90;101214.00;;;;4927836;28;117796;-70
2023/12/19 01:21:44;;;;;;;1.47;1.20;;;6.10;94.50;5.80;101209.00;;;;4931515;28;116628;-70
2023/12/19 01:24:09;;;;;;;1.30;1.00;;;6.30;94.70;5.70;101194.00;;;;4933996;28;109779;-70
2023/12/19 01:26:35;;;;;;;0.73;0.73;;;5.90;94.70;5.60;101190.00;;;;4934763;28;106816;-70
2023/12/19 01:29:02;;;;;;;1.37;0.90;;;5.80;94.80;5.60;101191.00;;;;4933808;28;104966;-71
2023/12/19 01:31:27;;;;;;;1.47;1.23;;;6.30;95.10;5.60;101200.00;;;;4927526;28;87820;-70
2023/12/19 01:33:53;;;;;;;0.87;0.83;;;5.70;95.00;5.60;101204.00;;;;4932275;28;109280;-70
2023/12/19 01:36:18;;;;;;;1.00;0.90;;;6.00;95.20;5.60;101212.00;;;;4925507;28;88674;-70
2023/12/19 01:38:44;;;;;;;0.90;0.90;;;5.80;95.20;5.60;101209.00;;;;4922834;28;116904;-71
2023/12/19 01:41:10;;;;;;;1.30;1.20;;;5.80;95.30;5.60;101194.00;;;;4928170;28;116794;-70
2023/12/19 01:43:35;;;;;;;1.13;0.77;;;5.80;95.30;5.70;101214.00;;;;4927690;28;87933;-70
2023/12/19 01:46:01;;;;;;;1.80;1.00;;;6.20;95.50;5.70;101207.00;;;;4927968;28;107937;-70
2023/12/19 01:48:27;;;;;;;1.40;1.10;;;6.30;95.60;5.70;101205.00;;;;4925123;28;93389;-71
2023/12/19 01:50:53;;;;;;;1.90;0.90;;;5.80;95.50;5.70;101197.00;;;;4927729;28;87593;-71
2023/12/19 01:53:21;;;;;;;1.27;1.00;;;5.80;95.50;5.60;101195.00;;;;4926017;28;109471;-71
2023/12/19 01:55:51;;;;;;;3.20;1.03;;;5.80;95.60;5.60;101209.00;;;;4927102;28;98925;-70
2023/12/19 01:58:17;;;;;;;2.20;1.00;;;5.80;95.60;5.60;101202.00;;;;4925102;28;88101;-71
2023/12/19 02:00:43;;;;;;;2.43;1.37;;;6.10;95.70;5.60;101200.00;;;;4925264;28;99625;-71
2023/12/19 02:03:09;;;;;;;0.70;0.70;;;5.80;95.70;5.50;101212.00;;;;4935367;28;110490;-70
2023/12/19 02:05:38;;;;;;;0.87;0.87;;;5.70;95.70;5.50;101215.00;;;;4931515;28;108679;-71
2023/12/19 02:08:04;;;;;;;2.50;1.00;;;5.70;95.90;5.40;101226.00;;;;4941963;28;88489;-71
2023/12/19 02:10:31;;;;;;;1.30;0.97;;;5.60;96.00;5.30;101234.00;;;;4929772;28;107703;-71
2023/12/19 02:12:57;;;;;;;2.83;1.10;;;5.50;96.00;5.30;101223.00;;;;4933186;28;87803;-72
2023/12/19 02:15:23;;;;;;;1.40;0.97;;;5.70;96.20;5.30;101213.00;;;;4932360;28;87798;-71
2023/12/19 02:17:49;;;;;;;1.47;1.03;;;5.50;96.20;5.30;101221.00;;;;4925664;28;87292;-71
2023/12/19 02:20:14;;;;;;;1.10;1.00;;;5.40;96.30;5.30;101220.00;;;;4927718;28;115773;-72
2023/12/19 02:22:41;;;;;;;1.33;1.00;;;6.10;96.60;5.30;101207.00;;;;4933282;28;102617;-70
2023/12/19 02:25:08;;;;;;;0.77;0.77;;;5.50;96.40;5.30;101206.00;;;;4928806;28;89015;-71
2023/12/19 02:27:35;;;;;;;1.93;1.40;;;5.50;96.50;5.30;101213.00;;;;4930275;28;87975;-70
2023/12/19 02:30:01;;;;;;;1.00;0.87;;;5.90;96.70;5.40;101216.00;;;;4928629;28;88059;-69
2023/12/19 02:32:32;;;;;;;2.13;0.70;;;5.40;96.60;5.40;101220.00;;;;4944403;28;88622;-71
2023/12/19 02:34:57;;;;;;;1.17;0.70;;;5.60;97.00;5.50;101217.00;;;;4932428;28;91651;-72
2023/12/19 02:37:23;;;;;;;1.33;1.23;;;5.80;96.70;5.50;101212.00;;;;4929473;28;117687;-72
2023/12/19 02:39:49;;;;;;;1.20;1.10;;;5.70;96.70;5.60;101212.00;;;;4935345;28;92671;-71
2023/12/19 02:42:14;;;;;;;0.67;0.67;;;5.80;96.90;5.70;101213.00;;;;4925829;28;103177;-70
2023/12/19 02:44:40;;;;;;;1.43;1.17;;;5.90;96.70;5.90;101215.00;;;;4928158;28;108450;-69
2023/12/19 02:47:06;;;;;;;1.37;1.03;;;6.50;96.70;6.00;101199.00;;;;4924041;28;119999;-70
2023/12/19 02:49:31;;;;;;;1.10;0.97;;;6.00;96.40;6.10;101194.00;;;;4929462;28;117489;-71
2023/12/19 02:51:58;;;;;;;1.23;1.00;;;6.20;96.20;6.20;101176.00;;;;4932420;28;110466;-71
2023/12/19 02:54:23;;;;;;;0.67;0.67;;;6.30;96.20;6.30;101147.00;;;;4934045;28;88998;-71
2023/12/19 02:56:49;;;;;;;0.80;0.80;;;6.40;95.80;6.40;101123.00;;;;4915847;28;101944;-71
2023/12/19 02:59:15;;;;;;;1.73;1.50;;;6.30;95.70;6.50;101123.00;;;;4930502;28;114739;-67
2023/12/19 03:01:47;;;;;;;1.50;1.40;;;6.60;95.40;6.60;101144.00;;;;4930412;28;110158;-69
2023/12/19 03:04:13;;;;;;;1.27;0.70;;;6.70;95.40;6.70;101162.00;;;;4936265;28;87931;-70
2023/12/19 03:06:39;;;;;;;2.13;1.33;;;6.80;95.40;6.70;101161.00;;;;4929702;28;88811;-68
2023/12/19 03:09:04;;;;;;;1.70;1.13;;;6.80;95.40;6.70;101168.00;;;;4930743;28;109896;-68
2023/12/19 03:11:30;;;;;;;1.00;0.83;;;6.90;95.40;6.80;101175.00;;;;4933603;28;108543;-67
2023/12/19 03:13:56;;;;;;;1.80;1.33;;;6.90;95.40;6.80;101178.00;;;;4928809;28;88800;-70
2023/12/19 03:16:21;;;;;;;1.00;0.90;;;6.90;95.20;6.90;101163.00;;;;4933232;28;87777;-69
2023/12/19 03:18:47;;;;;;;1.67;1.20;;;7.00;95.10;6.90;101164.00;;;;4936274;28;116330;-68
2023/12/19 03:21:13;;;;;;;1.17;0.97;;;7.10;95.10;7.00;101158.00;;;;4932174;28;108818;-70
2023/12/19 03:23:38;;;;;;;1.47;1.30;;;7.10;95.00;7.00;101161.00;;;;4930499;28;99321;-69
2023/12/19 03:26:04;;;;;;;1.20;1.10;;;7.10;94.90;7.10;101136.00;;;;4936401;28;88053;-71
2023/12/19 03:28:30;;;;;;;1.23;1.13;;;7.20;94.60;7.10;101160.00;;;;4935906;28;99616;-69
2023/12/19 03:30:55;;;;;;;1.53;0.80;;;7.20;94.60;7.10;101149.00;;;;4931183;28;109654;-69
2023/12/19 03:33:21;;;;;;;1.37;1.07;;;7.30;94.40;7.20;101163.00;;;;4924843;28;87551;-69
2023/12/19 03:35:47;;;;;;;1.23;0.73;;;7.30;94.20;7.20;101163.00;;;;4928370;28;117579;-68
2023/12/19 03:38:13;;;;;;;2.10;1.17;;;7.70;94.20;7.20;101134.00;;;;4930546;28;90048;-69
2023/12/19 03:40:39;;;;;;;1.40;1.20;;;7.30;94.00;7.20;101141.00;;;;4929368;28;109779;-69
2023/12/19 03:43:05;;;;;;;1.13;0.93;;;7.30;93.70;7.20;101139.00;;;;4942733;28;108733;-69
2023/12/19 03:45:30;;;;;;;1.37;1.23;;;7.30;93.70;7.20;101149.00;;;;4926180;28;117987;-71
2023/12/19 03:47:56;;;;;;;1.43;1.17;;;7.40;93.80;7.20;101156.00;;;;4935552;28;117868;-70
2023/12/19 03:50:22;;;;;;;1.13;1.07;;;7.40;93.70;7.30;101137.00;;;;4931936;28;109361;-69
2023/12/19 03:52:47;;;;;;;0.77;0.77;;;7.30;93.80;7.30;101138.00;;;;4927635;28;107338;-71
2023/12/19 03:55:13;;;;;;;0.90;0.60;;;7.50;93.90;7.30;101135.00;;;;4931479;28;115796;-69
2023/12/19 03:57:39;;;;;;;1.57;1.10;;;7.40;93.90;7.30;101142.00;;;;4927305;28;115394;-71
2023/12/19 04:00:06;;;;;;;1.30;0.80;;;7.40;93.90;7.30;101131.00;;;;4935444;28;90602;-69
2023/12/19 04:02:32;;;;;;;1.63;0.83;;;7.50;93.80;7.30;101113.00;;;;4927708;28;88955;-69
2023/12/19 04:04:58;;;;;;;0.90;0.90;;;7.50;93.90;7.40;101111.00;;;;4933734;28;116853;-71
2023/12/19 04:07:23;;;;;;;1.13;1.03;;;7.90;94.00;7.30;101104.00;;;;4927979;28;115361;-68
2023/12/19 04:09:49;;;;;;;0.83;0.83;;;7.50;93.80;7.30;101105.00;;;;4925494;28;108903;-69
2023/12/19 04:12:14;;;;;;;1.07;0.90;;;7.40;93.70;7.30;101109.00;;;;4927379;28;94835;-69
2023/12/19 04:14:40;;;;;;;2.07;1.17;;;7.50;93.70;7.20;101111.00;;;;4925263;28;117685;-69
2023/12/19 04:17:06;;;;;;;1.17;0.60;;;7.60;93.60;7.20;101120.00;;;;4931474;28;117511;-70
2023/12/19 04:19:31;;;;;;;2.47;1.57;;;7.40;93.70;7.20;101124.00;;;;4929985;28;109602;-71
2023/12/19 04:21:57;;;;;;;2.77;1.33;;;7.30;93.80;7.20;101133.00;;;;4934177;28;87752;-70
2023/12/19 04:24:25;;;;;;;1.27;1.10;;;7.30;93.50;7.10;101136.00;;;;4925265;28;87587;-68
2023/12/19 04:26:51;;;;;;;1.47;1.00;;;7.30;93.70;7.10;101129.00;;;;4925694;28;88859;-70
2023/12/19 04:29:17;;;;;;;1.03;0.90;;;7.30;93.60;7.10;101129.00;;;;4931909;28;88071;-69
2023/12/19 04:31:42;;;;;;;1.60;1.17;;;7.20;93.70;7.10;101123.00;;;;4933491;28;104517;-69
2023/12/19 04:34:08;;;;;;;0.87;0.87;;;7.20;93.90;7.10;101114.00;;;;4927249;28;117839;-67
2023/12/19 04:36:34;;;;;;;1.30;1.17;;;7.20;93.90;7.00;101122.00;;;;4928215;28;118333;-67
2023/12/19 04:38:59;;;;;;;2.27;1.23;;;7.20;93.90;7.00;101126.00;;;;4926173;28;99093;-69
2023/12/19 04:41:25;;;;;;;1.80;1.03;;;7.10;93.90;7.00;101117.00;;;;4929936;28;109218;-69
2023/12/19 04:43:51;;;;;;;1.07;0.83;;;7.10;93.90;7.00;101114.00;;;;4931627;28;116499;-67
2023/12/19 04:46:16;;;;;;;1.83;1.40;;;7.20;94.00;7.00;101118.00;;;;4933233;28;87991;-67
2023/12/19 04:48:42;;;;;;;2.23;1.03;;;7.20;94.00;7.00;101127.00;;;;4928961;28;110420;-68
2023/12/19 04:51:19;;;;;;;1.10;0.87;;;7.20;94.10;7.10;101127.00;;;;4920806;28;88632;-69
2023/12/19 04:53:47;;;;;;;1.33;0.80;;;7.20;94.10;7.10;101132.00;;;;4930062;28;87915;-68
2023/12/19 04:56:12;;;;;;;1.20;1.00;;;7.70;94.20;7.20;101127.00;;;;4930579;28;88125;-67
2023/12/19 04:58:43;;;;;;;2.10;1.30;;;7.30;93.80;7.20;101134.00;;;;4932557;28;87938;-67
2023/12/19 05:01:08;;;;;;;4.03;1.33;;;7.40;94.10;7.30;101119.00;;;;4922671;28;87697;-67
2023/12/19 05:03:37;;;;;;;1.77;1.10;;;7.40;93.90;7.40;101116.00;;;;4928834;28;118637;-68
2023/12/19 05:06:05;;;;;;;1.53;1.00;;;7.50;94.00;7.40;101109.00;;;;4929857;28;87777;-67
2023/12/19 05:08:30;;;;;;;2.30;1.10;;;7.50;94.00;7.50;101101.00;;;;4930052;28;88575;-70
2023/12/19 05:10:56;;;;;;;1.83;1.27;;;7.60;93.80;7.50;101102.00;;;;4936768;28;87931;-69
2023/12/19 05:13:22;;;;;;;1.70;1.07;;;7.60;93.60;7.60;101095.00;;;;4916960;28;87985;-68
2023/12/19 05:15:49;;;;;;;1.70;1.27;;;8.40;93.90;7.60;101104.00;;;;4930603;28;117508;-68
2023/12/19 05:18:18;;;;;;;1.00;0.77;;;7.70;93.40;7.60;101092.00;;;;4928767;28;102818;-68
2023/12/19 05:20:44;;;;;;;1.97;1.23;;;7.70;93.30;7.60;101089.00;;;;4928269;28;88136;-68
2023/12/19 05:23:10;;;;;;;1.73;1.30;;;7.80;93.20;7.70;101103.00;;;;4928120;28;103244;-68
2023/12/19 05:25:36;;;;;;;1.67;1.03;;;7.80;93.30;7.70;101100.00;;;;4925652;28;88360;-70
2023/12/19 05:28:02;;;;;;;1.17;1.00;;;9.20;93.70;7.70;101092.00;;;;4928364;28;87657;-70
2023/12/19 05:30:27;;;;;;;2.00;1.50;;;7.90;93.20;7.70;101099.00;;;;4928721;28;87798;-69
2023/12/19 05:32:53;;;;;;;1.70;1.07;;;7.90;92.90;7.80;101104.00;;;;4926001;28;116670;-70
2023/12/19 05:35:18;;;;;;;1.33;1.03;;;7.90;92.90;7.80;101115.00;;;;4931798;28;116699;-70
2023/12/19 05:37:44;;;;;;;0.90;0.90;;;7.90;93.00;7.80;101113.00;;;;4931467;28;109816;-70
2023/12/19 05:40:10;;;;;;;0.83;0.83;;;7.90;92.90;7.80;101118.00;;;;4873945;28;88803;-69
2023/12/19 05:42:36;;;;;;;2.30;1.43;;;7.90;93.00;7.80;101120.00;;;;4912135;28;107496;-67
2023/12/19 05:45:03;;;;;;;2.53;1.23;;;7.90;92.80;7.80;101116.00;;;;4908621;28;88792;-66
2023/12/19 05:47:29;;;;;;;1.90;1.13;;;8.00;92.80;7.80;101117.00;;;;4908340;28;88327;-66
2023/12/19 05:49:55;;;;;;;1.00;0.80;;;8.00;92.60;7.80;101108.00;;;;4908177;28;107524;-67
2023/12/19 05:52:20;;;;;;;0.80;0.80;;;8.00;92.70;7.90;101102.00;;;;4892393;28;89955;-69
2023/12/19 05:54:46;;;;;;;2.50;1.10;;;8.00;92.30;7.80;101110.00;;;;4906964;28;116336;-67
2023/12/19 05:57:12;;;;;;;1.73;1.13;;;8.00;92.20;7.90;101096.00;;;;4906135;28;87054;-68
2023/12/19 05:59:37;;;;;;;2.67;1.27;;;8.80;92.10;7.80;101101.00;;;;4910249;28;88128;-68
2023/12/19 06:02:03;;;;;;;1.13;0.93;;;9.50;92.70;7.80;101104.00;;;;4907009;28;87943;-69
2023/12/19 06:04:29;;;;;;;1.83;1.50;;;8.00;92.00;7.80;101102.00;;;;4913937;28;117243;-69
2023/12/19 06:06:55;;;;;;;3.50;1.90;;;8.00;92.10;7.80;101077.00;;;;4907728;28;100642;-70
2023/12/19 06:09:23;;;;;;;1.70;1.33;;;7.90;92.00;7.80;101070.00;;;;4901086;28;108407;-69
2023/12/19 06:11:49;;;;;;;3.57;1.80;;;7.90;91.90;7.80;101075.00;;;;4918379;28;117969;-70
2023/12/19 06:14:14;;;;;;;1.53;1.30;;;7.90;91.90;7.80;101074.00;;;;4903828;28;117650;-68
2023/12/19 06:16:40;;;;;;;1.23;0.90;;;7.90;91.80;7.80;101078.00;;;;4906250;28;109400;-68
2023/12/19 06:19:06;;;;;;;1.60;0.93;;;7.50;91.60;7.80;101073.00;;;;4909085;28;88043;-70
2023/12/19 06:21:32;;;;;;;1.13;1.03;;;7.90;91.90;7.70;101078.00;;;;4907545;28;94557;-70
2023/12/19 06:23:58;;;;;;;1.90;1.10;;;7.90;91.90;7.70;101074.00;;;;4909780;28;87900;-68
2023/12/19 06:26:23;;;;;;;1.30;1.00;;;7.90;92.00;7.70;101073.00;;;;4899404;28;87708;-68
2023/12/19 06:28:49;;;;;;;1.73;1.27;;;7.90;92.00;7.70;101072.00;;;;4904409;28;89005;-70
2023/12/19 06:31:15;;;;;;;1.07;0.90;;;7.80;91.80;7.70;101071.00;;;;4906844;28;117019;-68
2023/12/19 06:33:40;;;;;;;0.80;0.80;;;7.80;91.70;7.70;101068.00;;;;4905070;28;88446;-68
2023/12/19 06:36:06;;;;;;;0.97;0.83;;;7.80;91.80;7.70;101068.00;;;;4903265;28;87696;-68
2023/12/19 06:38:38;;;;;;;2.63;1.43;;;7.90;92.00;7.70;101061.00;;;;4904726;28;87817;-69
2023/12/19 06:41:04;;;;;;;2.53;1.57;;;7.80;91.90;7.70;101055.00;;;;4912217;28;87705;-68
2023/12/19 06:43:29;;;;;;;1.90;1.10;;;8.00;91.90;7.70;101057.00;;;;4904595;28;88091;-68
2023/12/19 06:45:55;;;;;;;2.33;0.80;;;7.90;91.80;7.70;101054.00;;;;4909203;28;87154;-68
2023/12/19 06:48:23;;;;;;;1.77;1.10;;;7.90;91.70;7.70;101047.00;;;;4905135;28;108719;-69
2023/12/19 06:50:48;;;;;;;1.77;1.10;;;7.80;91.60;7.70;101058.00;;;;4907919;28;87809;-70
2023/12/19 06:53:14;;;;;;;1.50;1.23;;;7.90;91.50;7.70;101060.00;;;;4909711;28;117207;-69
2023/12/19 06:55:40;;;;;;;2.67;1.00;;;7.90;91.30;7.80;101057.00;;;;4900956;28;109960;-69
2023/12/19 06:58:05;;;;;;;1.13;0.97;;;7.90;91.30;7.80;101069.00;;;;4905287;28;108284;-71
2023/12/19 07:00:32;;;;;;;1.10;1.00;;;7.90;91.80;7.80;101068.00;;;;4909179;28;117989;-70
2023/12/19 07:02:57;;;;;;;1.97;1.37;;;7.90;92.00;7.80;101056.00;;;;4907726;28;89489;-70
2023/12/19 07:05:23;;;;;;;1.03;0.77;;;7.90;91.90;7.80;101066.00;;;;4910967;28;87750;-71
2023/12/19 07:07:51;;;;;;;1.90;1.10;;;7.90;91.30;7.80;101059.00;;;;4911731;28;107910;-68
2023/12/19 07:10:17;;;;;;;1.33;1.13;;;7.90;91.30;7.80;101056.00;;;;4905972;28;88312;-68
2023/12/19 07:12:43;;;;;;;2.03;1.53;;;7.90;91.30;7.80;101049.00;;;;4906341;28;87982;-70
2023/12/19 07:15:09;;;;;;;4.10;1.23;;;8.50;91.50;7.80;101043.00;;;;4907476;28;110530;-70
2023/12/19 07:17:35;;;;;;;1.53;1.43;;;7.90;91.30;7.80;101027.00;;;;4906845;28;107403;-69
2023/12/19 07:20:01;;;;;;;1.93;1.40;;;7.90;90.80;7.80;101019.00;;;;4907837;28;88285;-68
2023/12/19 07:22:26;;;;;;;1.37;1.07;;;7.90;90.50;7.80;101023.00;;;;4906503;28;94438;-70
2023/12/19 07:24:52;;;;;;;2.10;1.27;;;7.90;90.70;7.80;101009.00;;;;4907297;28;110009;-70
2023/12/19 07:27:18;;;;;;;1.17;1.00;;;7.90;90.40;7.80;101006.00;;;;4906322;28;107508;-69
2023/12/19 07:29:43;;;;;;;1.37;1.13;;;7.90;90.30;7.80;100994.00;;;;4904695;28;117836;-70
2023/12/19 07:32:09;;;;;;;0.80;0.80;;;7.90;89.80;7.80;100997.00;;;;4907545;28;105090;-68
2023/12/19 07:34:34;;;;;;;1.07;0.97;;;9.50;90.30;7.80;100992.00;;;;4906448;28;110012;-68
2023/12/19 07:37:01;;;;;;;1.23;1.13;;;7.90;88.80;7.80;100990.00;;;;4906989;28;110325;-69
2023/12/19 07:39:27;;;;;;;2.30;1.57;;;8.00;89.50;7.80;100994.00;;;;4908397;28;88344;-68
2023/12/19 07:41:52;;;;;;;1.37;1.13;;;7.90;89.00;7.90;100992.00;;;;4904107;28;115041;-68
2023/12/19 07:44:19;;;;;;;1.23;1.10;;;7.90;89.20;7.90;100981.00;;;;4904710;28;108103;-68
2023/12/19 07:46:45;;;;;;;0.80;0.80;;;8.00;89.10;7.90;100978.00;;;;4914462;28;87633;-69
2023/12/19 07:49:11;;;;;;;1.80;1.03;;;8.10;89.00;7.90;100972.00;;;;4907397;28;116894;-69
2023/12/19 07:51:37;;;;;;;2.03;1.30;;;8.10;89.10;7.90;100976.00;;;;4903102;28;88001;-67
2023/12/19 07:54:03;;;;;;;1.87;1.20;;;8.10;88.80;8.00;100988.00;;;;4905093;28;110624;-67
2023/12/19 07:56:28;;;;;;;2.73;1.23;;;8.10;88.80;7.90;100974.00;;;;4904085;28;88185;-67
2023/12/19 07:58:54;;;;;;;1.40;1.20;;;8.10;88.10;8.00;100968.00;;;;4908508;28;114390;-68
2023/12/19 08:01:20;;;;;;;1.77;1.23;;;8.10;87.70;8.00;100964.00;;;;4907039;28;116672;-69
2023/12/19 08:03:47;;;;;;;3.90;1.23;;;8.10;87.50;8.00;100955.00;;;;4905424;28;90334;-70
2023/12/19 08:06:13;;;;;;;1.10;1.00;;;8.10;87.10;8.00;100954.00;;;;4906922;28;88573;-68
2023/12/19 08:08:43;;;;;;;1.20;1.10;;;8.10;86.90;8.00;100957.00;;;;4902643;28;89379;-68
2023/12/19 08:11:09;;;;;;;1.77;1.30;;;8.20;86.20;8.00;100941.00;;;;4904232;28;88177;-69
2023/12/19 08:13:35;;;;;;;1.27;0.67;;;8.10;86.00;8.00;100952.00;;;;4907945;28;87671;-68
2023/12/19 08:16:02;;;;;;;4.87;1.57;;;8.20;85.40;8.10;100941.00;;;;4908472;28;109805;-68
2023/12/19 08:18:27;;;;;;;1.20;0.90;;;8.20;85.00;8.10;100943.00;;;;4903445;28;89422;-70
2023/12/19 08:20:53;;;;;;;1.13;0.70;;;8.20;84.30;8.10;100941.00;;;;4904389;28;87675;-69
2023/12/19 08:23:19;;;;;;;1.07;0.97;;;8.10;84.60;8.10;100942.00;;;;4907086;28;110481;-70
2023/12/19 08:25:44;;;;;;;1.93;1.47;;;8.30;84.80;8.20;100961.00;;;;4888716;28;87711;-69
2023/12/19 08:28:11;;;;;;;1.37;1.27;;;8.20;85.00;8.20;100935.00;;;;4908077;28;117494;-69
2023/12/19 08:30:39;;;;;;;2.97;1.30;;;8.30;84.90;8.20;100931.00;;;;4921935;28;88620;-67
2023/12/19 08:33:05;;;;;;;4.60;1.20;;;8.30;84.60;8.20;100930.00;;;;4907504;28;103580;-68
2023/12/19 08:35:31;;;;;;;1.57;1.13;;;8.30;84.20;8.20;100940.00;;;;4906471;28;87959;-70
2023/12/19 08:37:57;;;;;;;1.13;1.00;;;8.30;84.10;8.20;100944.00;;;;4908353;28;89572;-69
2023/12/19 08:40:22;;;;;;;0.97;0.97;;;8.30;84.50;8.30;100946.00;;;;4903131;28;102139;-66
2023/12/19 08:42:53;;;;;;;1.87;0.90;;;8.40;85.00;8.30;100939.00;;;;4897284;28;110129;-68
2023/12/19 08:45:22;;;;;;;2.83;1.23;;;8.40;85.30;8.30;100955.00;;;;4904534;28;89674;-69
2023/12/19 08:47:49;;;;;;;2.50;1.03;;;8.40;85.30;8.30;100960.00;;;;4902239;28;87643;-68
2023/12/19 08:50:15;;;;;;;2.43;0.87;;;8.40;85.00;8.40;100973.00;;;;4906738;28;99655;-70
2023/12/19 08:52:42;;;;;;;1.00;0.90;;;8.50;85.30;8.40;100958.00;;;;4901830;28;88444;-69
2023/12/19 08:55:10;;;;;;;2.30;1.20;;;8.50;85.10;8.40;100966.00;;;;4898943;28;88581;-69
2023/12/19 08:57:49;;;;;;;1.50;1.20;;;8.50;85.10;8.40;100938.00;;;;4915945;28;88101;-68
2023/12/19 09:00:17;;;;;;;4.07;1.03;;;8.50;85.50;8.40;100945.00;;;;4906114;28;89265;-68
2023/12/19 09:02:43;;;;;;;1.90;0.93;;;8.50;84.80;8.40;100940.00;;;;4905769;28;87977;-69
2023/12/19 09:05:11;;;;;;;1.50;0.90;;;8.50;84.30;8.40;100947.00;;;;4915123;28;88105;-68
2023/12/19 09:07:37;;;;;;;1.27;1.17;;;8.50;84.30;8.40;100954.00;;;;4897600;28;87690;-69
2023/12/19 09:10:04;;;;;;;1.43;0.87;;;8.50;84.60;8.40;100944.00;;;;4914140;28;88602;-68
2023/12/19 09:12:29;;;;;;;3.13;1.57;;;8.60;84.30;8.40;100933.00;;;;4912125;28;86891;-67
2023/12/19 09:14:55;;;;;;;1.37;1.27;;;8.50;84.00;8.40;100935.00;;;;4888173;28;105060;-68
2023/12/19 09:17:21;;;;;;;2.20;1.10;;;8.50;84.00;8.50;100933.00;;;;4884045;28;117830;-69
2023/12/19 09:19:46;;;;;;;2.17;1.63;;;8.60;84.50;8.50;100931.00;;;;4899863;28;117789;-67
2023/12/19 09:22:12;;;;;;;1.00;0.90;;;8.60;83.90;8.50;100933.00;;;;4888719;28;109755;-67
2023/12/19 09:24:38;;;;;;;1.57;1.37;;;8.60;84.20;8.50;100935.00;;;;4902643;28;108904;-68
2023/12/19 09:27:04;;;;;;;2.77;1.63;;;8.60;84.20;8.50;100922.00;;;;4898397;28;117680;-69
2023/12/19 09:29:29;;;;;;;2.93;1.23;;;8.60;84.30;8.50;100917.00;;;;4902487;28;90326;-66
2023/12/19 09:31:57;;;;;;;2.50;1.60;;;8.60;84.70;8.50;100910.00;;;;4901124;28;103086;-66
2023/12/19 09:34:23;;;;;;;1.77;0.93;;;8.60;84.50;8.50;100896.00;;;;4902091;28;89016;-66
2023/12/19 09:36:49;;;;;;;2.60;1.60;;;8.60;84.70;8.50;100899.00;;;;4904391;28;116781;-66
2023/12/19 09:39:15;;;;;;;1.57;1.30;;;8.60;84.50;8.50;100889.00;;;;4898491;28;117178;-68
2023/12/19 09:41:42;;;;;;;1.43;1.10;;;8.60;84.50;8.50;100887.00;;;;4899781;28;109862;-69
2023/12/19 09:44:08;;;;;;;1.00;0.97;;;8.60;84.60;8.60;100879.00;;;;4897351;28;89996;-68
2023/12/19 09:46:33;;;;;;;1.40;1.20;;;8.60;85.10;8.60;100887.00;;;;4897561;28;118540;-67
2023/12/19 09:49:00;;;;;;;1.23;1.10;;;8.60;85.30;8.50;100883.00;;;;4904344;28;116015;-67
2023/12/19 09:51:32;;;;;;;2.00;1.60;;;8.60;85.10;8.50;100866.00;;;;4901840;28;98163;-66
2023/12/19 09:54:00;;;;;;;3.03;1.63;;;8.70;85.90;8.50;100871.00;;;;4901982;28;88203;-72
2023/12/19 09:56:27;;;;;;;5.13;1.20;;;8.70;85.90;8.50;100867.00;;;;4899136;28;103561;-67
2023/12/19 09:58:55;;;;;;;3.40;1.37;;;8.60;85.70;8.50;100868.00;;;;4903094;28;88647;-67
2023/12/19 10:01:21;;;;;;;1.83;1.20;;;8.60;85.70;8.50;100874.00;;;;4906637;28;87534;-67
2023/12/19 10:03:49;;;;;;;4.73;1.40;;;8.70;86.20;8.50;100850.00;;;;4901689;28;93814;-68
2023/12/19 10:06:17;;;;;;;1.73;1.30;;;8.60;86.10;8.50;100848.00;;;;4915991;28;89106;-69
2023/12/19 10:08:44;;;;;;;1.60;1.17;;;8.70;86.20;8.50;100846.00;;;;4904468;28;90933;-68
2023/12/19 10:11:21;;;;;;;1.43;1.17;;;8.60;86.00;8.50;100832.00;;;;4897326;28;109824;-69
2023/12/19 10:13:47;;;;;;;3.50;1.00;;;8.60;86.00;8.50;100837.00;;;;4907217;28;87966;-68
2023/12/19 10:16:20;;;;;;;2.47;1.40;;;8.60;86.20;8.50;100821.00;;;;4906636;28;117954;-69
2023/12/19 10:18:56;;;;;;;1.57;1.27;;;8.60;86.80;8.50;100810.00;;;;4919018;28;87692;-68
2023/12/19 10:21:24;;;;;;;1.70;1.40;;;8.70;87.20;8.60;100813.00;;;;4922076;28;87722;-67
2023/12/19 10:23:50;;;;;;;0.90;0.90;;;8.70;86.80;8.60;100808.00;;;;4905034;28;87806;-67
2023/12/19 10:26:16;;;;;;;2.53;1.00;;;8.70;86.80;8.60;100803.00;;;;4904889;28;88889;-69
2023/12/19 10:28:42;;;;;;;2.10;1.03;;;8.70;87.10;8.60;100803.00;;;;4892193;28;116018;-68
2023/12/19 10:31:17;;;;;;;2.10;1.43;;;8.70;86.80;8.60;100797.00;;;;4907708;28;87302;-67
2023/12/19 10:33:51;;;;;;;1.57;1.33;;;8.90;86.50;8.70;100796.00;;;;4907645;28;89004;-68
2023/12/19 10:36:28;;;;;;;3.20;1.50;;;8.70;86.80;8.70;100791.00;;;;4907047;28;88307;-68
2023/12/19 10:38:59;;;;;;;2.17;1.47;;;8.70;86.70;8.70;100783.00;;;;4922962;28;88367;-68
2023/12/19 10:41:32;;;;;;;1.43;1.03;;;8.70;86.40;8.70;100776.00;;;;4889968;28;87824;-68
2023/12/19 10:44:00;;;;;;;1.40;1.30;;;8.80;87.00;8.70;100771.00;;;;4905782;28;87627;-67
2023/12/19 10:46:30;;;;;;;2.53;1.60;;;8.80;87.00;8.80;100770.00;;;;4910569;28;88131;-69
2023/12/19 10:49:04;;;;;;;2.10;1.40;;;8.90;86.40;8.80;100777.00;;;;4907599;28;87769;-68
2023/12/19 10:51:41;;;;;;;1.57;1.17;;;8.80;86.80;8.80;100770.00;;;;4908760;28;87197;-67
2023/12/19 10:54:09;;;;;;;2.20;1.53;;;8.90;87.00;8.80;100762.00;;;;4907339;28;87644;-68